Time;durP1;ratioP1;P1;durP2;ratioP2;P2;SDS_P1;SDS_P2;PMS_P1;PMS_P2;Temp;Humidity;BMP_temperature;BMP_pressure;BME280_temperature;BME280_humidity;BME280_pressure;Samples;Min_cycle;Max_cycle;Signal;HPM_P1;HPM_P2
2023/02/11 00:00:58;;;;;;;1.20;0.00;;;;;;;2.13;68.83;100179.97;5016649;28;20517;-72
2023/02/11 00:03:25;;;;;;;0.00;0.00;;;;;;;2.13;68.58;100169.66;5009030;28;20417;-72
2023/02/11 00:06:02;;;;;;;0.15;0.00;;;;;;;2.15;68.97;100164.53;5022966;28;20045;-72
2023/02/11 00:08:29;;;;;;;0.30;0.00;;;;;;;2.17;69.25;100160.25;5011387;28;20056;-72
2023/02/11 00:10:57;;;;;;;0.73;0.03;;;;;;;2.16;68.36;100156.81;5021286;28;20046;-72
2023/02/11 00:13:25;;;;;;;0.55;0.00;;;;;;;2.20;68.88;100162.84;5012785;28;20057;-72
2023/02/11 00:15:53;;;;;;;0.20;0.10;;;;;;;2.19;68.96;100153.38;5016194;28;20045;-72
2023/02/11 00:18:20;;;;;;;0.80;0.00;;;;;;;2.19;68.41;100159.41;5023270;28;20044;-72
2023/02/11 00:20:47;;;;;;;0.10;0.00;;;;;;;2.22;68.54;100154.28;5025577;28;20046;-72
2023/02/11 00:23:15;;;;;;;0.17;0.00;;;;;;;2.23;68.46;100152.56;5022155;28;20049;-72
2023/02/11 00:25:43;;;;;;;0.10;0.00;;;;;;;2.23;68.85;100153.41;5020039;28;20565;-72
2023/02/11 00:28:11;;;;;;;0.47;0.10;;;;;;;2.26;69.25;100150.00;5025676;28;20045;-72
2023/02/11 00:30:38;;;;;;;0.00;0.00;;;;;;;2.27;68.82;100151.72;5026177;28;20042;-73
2023/02/11 00:33:05;;;;;;;1.25;0.00;;;;;;;2.28;68.55;100144.84;5022237;28;20848;-72
2023/02/11 00:35:32;;;;;;;0.40;0.08;;;;;;;2.28;69.18;100147.41;5026705;28;20152;-72
2023/02/11 00:37:59;;;;;;;0.90;0.00;;;;;;;2.29;69.08;100137.13;5024996;28;20383;-72
2023/02/11 00:40:27;;;;;;;1.13;0.00;;;;;;;2.31;68.85;100142.31;5021362;28;20781;-72
2023/02/11 00:42:54;;;;;;;2.20;0.00;;;;;;;2.31;68.63;100143.16;5024058;28;20049;-72
2023/02/11 00:45:21;;;;;;;0.10;0.03;;;;;;;2.33;68.79;100146.56;5019420;28;20061;-72
2023/02/11 00:47:48;;;;;;;0.08;0.00;;;;;;;2.32;68.44;100134.56;5025109;28;20905;-72
2023/02/11 00:50:15;;;;;;;0.50;0.08;;;;;;;2.34;68.32;100130.28;5020286;28;20046;-72
2023/02/11 00:52:41;;;;;;;0.38;0.10;;;;;;;2.35;68.67;100125.97;5023507;28;20046;-72
2023/02/11 00:55:08;;;;;;;1.85;0.10;;;;;;;2.36;68.50;100125.13;5025014;28;20497;-72
2023/02/11 00:57:37;;;;;;;0.15;0.15;;;;;;;2.36;68.67;100126.00;5026653;28;20052;-72
2023/02/11 01:00:05;;;;;;;0.10;0.10;;;;;;;2.37;69.14;100112.25;5017151;28;20053;-73
2023/02/11 01:02:32;;;;;;;0.10;0.10;;;;;;;2.38;68.53;100113.97;5021489;28;20052;-72
2023/02/11 01:04:59;;;;;;;0.40;0.10;;;;;;;2.37;68.98;100113.97;5027622;28;20050;-72
2023/02/11 01:07:26;;;;;;;0.10;0.00;;;;;;;2.38;68.94;100113.09;5022649;28;20045;-72
2023/02/11 01:09:53;;;;;;;0.20;0.10;;;;;;;2.39;68.90;100110.56;5023022;28;20049;-72
2023/02/11 01:12:20;;;;;;;0.22;0.10;;;;;;;2.40;68.77;100109.69;5016242;28;20041;-72
2023/02/11 01:14:49;;;;;;;1.25;0.63;;;;;;;2.34;68.67;100101.94;5026428;28;20056;-72
2023/02/11 01:17:16;;;;;;;0.00;0.00;;;;;;;2.41;68.56;100108.81;5024759;28;20061;-72
2023/02/11 01:19:43;;;;;;;0.70;0.00;;;;;;;2.42;68.73;100117.41;5020373;28;20516;-72
2023/02/11 01:22:10;;;;;;;0.63;0.10;;;;;;;2.43;69.22;100116.56;5018659;28;20052;-72
2023/02/11 01:24:36;;;;;;;0.43;0.00;;;;;;;2.42;69.35;100110.56;5023380;28;20050;-72
2023/02/11 01:27:04;;;;;;;0.13;0.05;;;;;;;2.43;68.64;100116.56;5024975;28;20665;-72
2023/02/11 01:29:30;;;;;;;1.13;0.28;;;;;;;2.43;68.73;100107.13;5018688;28;20056;-72
2023/02/11 01:32:00;;;;;;;1.80;0.10;;;;;;;2.44;69.29;100107.97;5015064;28;20049;-72
2023/02/11 01:34:27;;;;;;;0.85;0.20;;;;;;;2.44;69.41;100093.34;5018505;28;20053;-72
2023/02/11 01:36:57;;;;;;;0.15;0.10;;;;;;;2.43;69.46;100088.22;5018686;28;20056;-72
2023/02/11 01:39:24;;;;;;;0.25;0.10;;;;;;;2.46;68.85;100101.13;5017137;28;20041;-72
2023/02/11 01:41:51;;;;;;;0.55;0.10;;;;;;;2.46;69.01;100086.50;5016112;28;20037;-74
2023/02/11 01:44:26;;;;;;;0.43;0.10;;;;;;;2.44;69.25;100072.75;5008322;28;20068;-72
2023/02/11 01:46:53;;;;;;;0.35;0.20;;;;;;;2.46;68.80;100077.91;5012463;28;20045;-72
2023/02/11 01:49:26;;;;;;;0.30;0.30;;;;;;;2.48;69.18;100078.78;5021593;28;20046;-72
2023/02/11 01:51:57;;;;;;;0.10;0.10;;;;;;;2.47;69.34;100082.19;5016713;28;20429;-72
2023/02/11 01:57:23;;;;;;;0.25;0.05;;;;;;;2.48;68.85;100105.44;5023864;28;20056;-72
2023/02/11 02:00:01;;;;;;;0.20;0.10;;;;;;;2.48;69.00;100100.28;5015988;28;20046;-72
2023/02/11 02:02:34;;;;;;;0.10;0.10;;;;;;;2.50;69.43;100107.13;5019105;28;20089;-72
2023/02/11 02:05:10;;;;;;;1.00;0.10;;;;;;;2.51;69.10;100096.00;5019680;28;20054;-72
2023/02/11 02:07:42;;;;;;;1.55;0.10;;;;;;;2.49;68.86;100101.13;5014482;28;20045;-73
2023/02/11 02:10:14;;;;;;;2.33;0.20;;;;;;;2.50;68.89;100102.84;5022055;28;20042;-72
2023/02/11 02:12:41;;;;;;;0.13;0.10;;;;;;;2.50;68.72;100087.38;5023841;28;20048;-73
2023/02/11 02:15:27;;;;;;;0.85;0.17;;;;;;;2.52;68.95;100089.97;5019286;28;20049;-72
2023/02/11 02:18:01;;;;;;;0.10;0.10;;;;;;;2.51;68.87;100083.09;5021971;28;20046;-72
2023/02/11 02:21:05;;;;;;;1.65;0.57;;;;;;;2.52;68.91;100090.81;5011740;28;20046;-72
2023/02/11 02:23:40;;;;;;;0.30;0.10;;;;;;;2.51;68.73;100083.94;5023219;28;20042;-72
2023/02/11 02:26:42;;;;;;;0.70;0.25;;;;;;;2.50;69.19;100081.34;5014295;28;20050;-72
2023/02/11 02:29:42;;;;;;;0.77;0.13;;;;;;;2.51;69.29;100091.69;5009285;28;20088;-72
2023/02/11 02:32:28;;;;;;;0.40;0.10;;;;;;;2.52;69.18;100106.28;5007453;28;20077;-76
2023/02/11 02:35:04;;;;;;;0.30;0.10;;;;;;;2.52;69.20;100113.16;5019672;28;20057;-74
2023/02/11 02:37:36;;;;;;;0.10;0.10;;;;;;;2.52;68.97;100111.44;5017528;28;20049;-75
2023/02/11 02:40:08;;;;;;;0.20;0.10;;;;;;;2.54;68.98;100116.63;5016970;28;20061;-75
2023/02/11 02:42:36;;;;;;;0.28;0.20;;;;;;;2.53;69.27;100114.88;5016997;28;20045;-75
2023/02/11 02:45:03;;;;;;;0.32;0.10;;;;;;;2.53;68.78;100114.88;5021109;28;20391;-74
2023/02/11 02:47:31;;;;;;;0.60;0.30;;;;;;;2.53;69.26;100118.31;5023120;28;20042;-74
2023/02/11 02:49:58;;;;;;;1.75;0.20;;;;;;;2.55;68.91;100123.47;5018283;28;20056;-74
2023/02/11 02:52:34;;;;;;;1.88;0.30;;;;;;;2.54;69.70;100119.19;5015726;28;20513;-74
2023/02/11 02:55:36;;;;;;;1.85;0.20;;;;;;;2.54;69.48;100114.03;5020665;28;20052;-74
2023/02/11 02:58:25;;;;;;;0.20;0.20;;;;;;;2.55;69.28;100118.31;5012583;28;20064;-74
2023/02/11 03:01:03;;;;;;;0.40;0.20;;;;;;;2.56;68.98;100127.78;5017906;28;20045;-74
2023/02/11 03:03:42;;;;;;;0.15;0.15;;;;;;;2.55;69.44;100134.66;5019059;28;20480;-74
2023/02/11 03:06:13;;;;;;;0.20;0.20;;;;;;;2.56;69.33;100130.34;5016813;28;20046;-74
2023/02/11 03:08:46;;;;;;;2.70;0.20;;;;;;;2.54;69.68;100132.94;5017241;28;20042;-74
2023/02/11 03:11:17;;;;;;;0.20;0.20;;;;;;;2.54;69.58;100124.34;5011343;28;20069;-74
2023/02/11 03:13:46;;;;;;;0.70;0.20;;;;;;;2.54;69.80;100126.94;5019136;28;20398;-75
2023/02/11 03:16:17;;;;;;;0.30;0.10;;;;;;;2.54;69.61;100126.94;5015200;28;20041;-74
2023/02/11 03:18:50;;;;;;;1.55;0.20;;;;;;;2.55;70.08;100132.06;5018580;28;20409;-74
2023/02/11 03:21:20;;;;;;;0.30;0.20;;;;;;;2.56;70.40;100143.25;5016407;28;20055;-74
2023/02/11 03:23:53;;;;;;;1.55;0.10;;;;;;;2.57;70.34;100145.00;5021878;28;20059;-75
2023/02/11 03:26:25;;;;;;;2.58;0.15;;;;;;;2.58;70.37;100146.69;5013211;28;20045;-75
2023/02/11 03:29:00;;;;;;;0.30;0.17;;;;;;;2.60;70.71;100147.56;5023150;28;20051;-74
2023/02/11 03:31:34;;;;;;;0.40;0.10;;;;;;;2.61;70.08;100147.56;5025527;28;20401;-77
2023/02/11 03:34:14;;;;;;;1.05;0.10;;;;;;;2.62;70.69;100153.59;5023282;28;20052;-75
2023/02/11 03:36:46;;;;;;;0.60;0.10;;;;;;;2.63;70.34;100156.19;5016811;28;20096;-75
2023/02/11 03:39:19;;;;;;;1.05;0.10;;;;;;;2.64;70.44;100159.59;5020296;28;20057;-74
2023/02/11 03:41:49;;;;;;;1.38;0.38;;;;;;;2.63;71.37;100161.34;5019005;28;20449;-69
2023/02/11 03:44:17;;;;;;;1.33;0.10;;;;;;;2.66;71.05;100165.66;5022945;28;20061;-69
2023/02/11 03:46:50;;;;;;;0.22;0.10;;;;;;;2.67;70.76;100168.22;5014206;28;20051;-69
2023/02/11 03:49:23;;;;;;;0.10;0.10;;;;;;;2.69;70.77;100168.22;5020835;28;20041;-69
2023/02/11 03:51:52;;;;;;;0.30;0.10;;;;;;;2.69;70.67;100175.97;5019561;28;20045;-69
2023/02/11 03:54:24;;;;;;;0.10;0.10;;;;;;;2.69;71.12;100176.81;5020174;28;20042;-69
2023/02/11 03:56:55;;;;;;;0.57;0.20;;;;;;;2.69;70.88;100181.13;5018381;28;20046;-69
2023/02/11 03:59:22;;;;;;;3.20;1.45;;;;;;;2.71;70.39;100187.16;5017639;28;20071;-69
2023/02/11 04:01:48;;;;;;;1.65;0.00;;;;;;;2.72;70.46;100191.44;5018171;28;20042;-69
2023/02/11 04:04:15;;;;;;;0.32;0.10;;;;;;;2.74;70.73;100204.38;5021577;28;20041;-69
2023/02/11 04:06:44;;;;;;;0.45;0.00;;;;;;;2.74;70.23;100212.09;5020431;28;20049;-69
2023/02/11 04:09:11;;;;;;;0.25;0.05;;;;;;;2.73;70.23;100211.22;5021722;28;20099;-69
2023/02/11 04:11:38;;;;;;;1.25;0.10;;;;;;;2.74;70.35;100220.69;5019908;28;20378;-69
2023/02/11 04:14:04;;;;;;;0.17;0.10;;;;;;;2.74;70.59;100223.28;5017980;28;20046;-69
2023/02/11 04:16:31;;;;;;;0.60;0.03;;;;;;;2.74;70.29;100228.44;5023294;28;20046;-69
2023/02/11 04:18:58;;;;;;;0.00;0.00;;;;;;;2.73;70.41;100234.44;5017343;28;20042;-69
2023/02/11 04:21:25;;;;;;;1.65;0.10;;;;;;;2.73;70.20;100236.16;5012824;28;20057;-69
2023/02/11 04:23:53;;;;;;;0.00;0.00;;;;;;;2.70;70.66;100235.31;5021543;28;20640;-69
2023/02/11 04:26:20;;;;;;;0.13;0.00;;;;;;;2.73;70.03;100243.88;5022654;28;20049;-69
2023/02/11 04:28:47;;;;;;;0.93;0.00;;;;;;;2.70;70.56;100249.88;5018160;28;20050;-69
2023/02/11 04:31:14;;;;;;;1.17;0.10;;;;;;;2.69;70.46;100249.03;5014142;28;20052;-69
2023/02/11 04:33:40;;;;;;;1.00;0.03;;;;;;;2.69;70.04;100253.34;5017385;28;20072;-69
2023/02/11 04:36:08;;;;;;;0.80;0.08;;;;;;;2.68;70.11;100256.78;5013756;28;20057;-69
2023/02/11 04:38:35;;;;;;;1.27;0.00;;;;;;;2.67;70.44;100260.19;5017929;28;20418;-69
2023/02/11 04:41:03;;;;;;;0.10;0.03;;;;;;;2.67;70.39;100262.78;5014345;28;20053;-69
2023/02/11 04:43:30;;;;;;;0.65;0.10;;;;;;;2.64;70.44;100270.50;5019141;28;20049;-69
2023/02/11 04:45:58;;;;;;;0.60;0.08;;;;;;;2.64;70.45;100275.66;5018235;28;20070;-69
2023/02/11 04:48:25;;;;;;;1.08;0.00;;;;;;;2.62;70.07;100283.41;5014724;28;20046;-69
2023/02/11 04:50:52;;;;;;;1.85;0.00;;;;;;;2.62;70.45;100290.28;5018181;28;20056;-69
2023/02/11 04:53:19;;;;;;;0.75;0.10;;;;;;;2.60;70.33;100289.38;5017284;28;20093;-69
2023/02/11 04:55:49;;;;;;;0.00;0.00;;;;;;;2.59;69.79;100291.13;5021960;28;20524;-69
2023/02/11 04:58:18;;;;;;;0.95;0.00;;;;;;;2.58;70.19;100306.56;5020993;28;20495;-69
2023/02/11 05:00:44;;;;;;;0.20;0.10;;;;;;;2.56;70.01;100303.09;5019957;28;20037;-69
2023/02/11 05:03:12;;;;;;;2.42;0.10;;;;;;;2.55;69.64;100316.84;5020389;28;20041;-69
2023/02/11 05:05:40;;;;;;;0.20;0.03;;;;;;;2.47;70.11;100306.47;5026716;28;20344;-69
2023/02/11 05:08:07;;;;;;;0.15;0.00;;;;;;;2.52;70.29;100319.41;5024642;28;20326;-69
2023/02/11 05:10:34;;;;;;;0.75;0.08;;;;;;;2.49;70.22;100330.56;5024888;28;20060;-69
2023/02/11 05:13:01;;;;;;;1.60;0.10;;;;;;;2.48;69.77;100346.91;5019675;28;20059;-69
2023/02/11 05:15:29;;;;;;;0.65;0.00;;;;;;;2.46;69.48;100348.59;5019670;28;20057;-69
2023/02/11 05:17:56;;;;;;;1.98;0.10;;;;;;;2.43;69.42;100364.91;5018194;28;20045;-69
2023/02/11 05:20:23;;;;;;;0.00;0.00;;;;;;;2.41;69.50;100369.16;5024670;28;20045;-69
2023/02/11 05:22:50;;;;;;;2.05;0.10;;;;;;;2.37;70.08;100375.16;5022049;28;20124;-69
2023/02/11 05:25:17;;;;;;;0.25;0.00;;;;;;;2.37;69.74;100382.88;5019018;28;20500;-69
2023/02/11 05:27:44;;;;;;;0.45;0.00;;;;;;;2.34;69.81;100395.75;5024457;28;20042;-69
2023/02/11 05:30:11;;;;;;;1.60;0.10;;;;;;;2.32;69.51;100401.75;5023114;28;20050;-69
2023/02/11 05:32:40;;;;;;;0.28;0.05;;;;;;;2.28;69.80;100413.75;5023039;28;20044;-69
2023/02/11 05:35:07;;;;;;;1.85;0.10;;;;;;;2.25;69.28;100421.44;5016985;28;20042;-69
2023/02/11 05:37:34;;;;;;;2.90;0.03;;;;;;;2.21;69.36;100435.13;5023311;28;20103;-69
2023/02/11 05:40:01;;;;;;;0.75;0.00;;;;;;;2.19;69.44;100444.56;5020324;28;20049;-69
2023/02/11 05:42:28;;;;;;;1.63;0.20;;;;;;;2.17;69.62;100438.53;5018215;28;20054;-69
2023/02/11 05:44:55;;;;;;;0.45;0.00;;;;;;;2.14;69.11;100448.81;5020850;28;20072;-69
2023/02/11 05:47:22;;;;;;;0.25;0.10;;;;;;;2.11;69.60;100447.06;5017373;28;20041;-69
2023/02/11 05:49:52;;;;;;;1.30;0.08;;;;;;;2.09;69.32;100465.94;5020025;28;20055;-69
2023/02/11 05:52:19;;;;;;;1.15;0.03;;;;;;;2.06;68.65;100458.19;5019924;28;20042;-69
2023/02/11 05:54:46;;;;;;;0.00;0.00;;;;;;;2.02;68.74;100465.88;5019218;28;20045;-69
2023/02/11 05:57:13;;;;;;;2.92;0.10;;;;;;;1.98;69.26;100470.97;5017770;28;20041;-69
2023/02/11 05:59:40;;;;;;;0.22;0.10;;;;;;;1.94;69.11;100485.53;5021423;28;20056;-69
2023/02/11 06:02:07;;;;;;;0.30;0.10;;;;;;;1.91;68.38;100488.06;5021851;28;20049;-69
2023/02/11 06:04:35;;;;;;;0.88;0.10;;;;;;;1.88;68.37;100490.59;5022317;28;20045;-69
2023/02/11 06:07:03;;;;;;;0.32;0.10;;;;;;;1.84;68.28;100501.69;5017934;28;20049;-69
2023/02/11 06:09:30;;;;;;;0.43;0.10;;;;;;;1.84;68.35;100514.56;5017817;28;20059;-69
2023/02/11 06:11:57;;;;;;;0.52;0.10;;;;;;;1.80;68.78;100523.97;5022240;28;20053;-69
2023/02/11 06:14:24;;;;;;;1.08;0.10;;;;;;;1.79;68.90;100535.13;5021141;28;20078;-69
2023/02/11 06:16:51;;;;;;;3.10;0.10;;;;;;;1.76;68.56;100537.63;5022531;28;20045;-69
2023/02/11 06:19:18;;;;;;;1.08;0.20;;;;;;;1.74;68.42;100539.34;5022132;28;20499;-69
2023/02/11 06:21:45;;;;;;;1.63;0.10;;;;;;;1.73;68.01;100549.63;5021992;28;20049;-69
2023/02/11 06:24:13;;;;;;;1.25;0.00;;;;;;;1.71;68.29;100571.94;5018147;28;20046;-69
2023/02/11 06:26:40;;;;;;;0.50;0.10;;;;;;;1.70;68.68;100580.47;5015979;28;20050;-69
2023/02/11 06:29:07;;;;;;;0.63;0.10;;;;;;;1.68;68.70;100588.19;5020007;28;20486;-69
2023/02/11 06:31:34;;;;;;;0.10;0.10;;;;;;;1.67;68.29;100595.88;5018287;28;20468;-69
2023/02/11 06:34:01;;;;;;;0.93;0.10;;;;;;;1.64;68.08;100601.84;5016995;28;20508;-69
2023/02/11 06:36:28;;;;;;;0.30;0.10;;;;;;;1.63;68.48;100602.72;5018824;28;20064;-69
2023/02/11 06:38:55;;;;;;;1.23;0.10;;;;;;;1.63;68.81;100610.44;5017039;28;20054;-69
2023/02/11 06:41:23;;;;;;;0.22;0.10;;;;;;;1.60;67.91;100605.25;5013631;28;20483;-69
2023/02/11 06:43:52;;;;;;;0.63;0.10;;;;;;;1.56;67.77;100609.44;5023493;28;20045;-69
2023/02/11 06:46:19;;;;;;;1.00;0.10;;;;;;;1.54;67.43;100616.31;5020181;28;20050;-69
2023/02/11 06:48:46;;;;;;;1.25;0.20;;;;;;;1.52;67.80;100620.56;5019930;28;20052;-69
2023/02/11 06:51:14;;;;;;;1.45;0.10;;;;;;;1.49;68.66;100625.66;5021363;28;20557;-70
2023/02/11 06:53:43;;;;;;;1.42;0.20;;;;;;;1.47;68.16;100635.06;5018953;28;20052;-69
2023/02/11 06:56:11;;;;;;;1.60;0.28;;;;;;;1.44;67.98;100635.00;5018140;28;20052;-69
2023/02/11 06:58:40;;;;;;;2.40;0.20;;;;;;;1.41;68.27;100641.81;5016207;28;20052;-69
2023/02/11 07:01:08;;;;;;;1.30;0.10;;;;;;;1.41;68.39;100649.53;5016520;28;20041;-69
2023/02/11 07:03:35;;;;;;;0.10;0.05;;;;;;;1.39;67.98;100666.66;5020207;28;20554;-68
2023/02/11 07:06:03;;;;;;;0.63;0.22;;;;;;;1.35;67.87;100670.88;5021426;28;20050;-69
2023/02/11 07:08:30;;;;;;;1.15;0.20;;;;;;;1.33;68.28;100690.56;5020137;28;20051;-69
2023/02/11 07:10:57;;;;;;;3.15;0.90;;;;;;;1.29;68.67;100699.97;5020892;28;20054;-69
2023/02/11 07:13:24;;;;;;;1.60;0.13;;;;;;;1.28;68.34;100716.25;5022980;28;20053;-69
2023/02/11 07:15:52;;;;;;;2.05;0.20;;;;;;;1.26;67.53;100707.63;5020318;28;20050;-69
2023/02/11 07:18:19;;;;;;;0.52;0.10;;;;;;;1.26;68.18;100722.19;5019424;28;20060;-69
2023/02/11 07:20:46;;;;;;;1.45;0.10;;;;;;;1.23;68.55;100738.44;5018970;28;20045;-69
2023/02/11 07:23:12;;;;;;;2.15;0.17;;;;;;;1.21;68.09;100754.69;5015027;28;20482;-69
2023/02/11 07:25:39;;;;;;;2.75;0.40;;;;;;;1.18;68.43;100770.06;5014688;28;20041;-69
2023/02/11 07:28:06;;;;;;;1.88;0.38;;;;;;;1.14;67.66;100774.31;5021146;28;20053;-69
2023/02/11 07:30:33;;;;;;;1.17;0.28;;;;;;;1.12;67.54;100783.69;5016956;28;20056;-69
2023/02/11 07:33:01;;;;;;;1.48;0.20;;;;;;;1.07;67.59;100781.00;5022827;28;20063;-69
2023/02/11 07:35:28;;;;;;;3.00;0.30;;;;;;;1.09;68.50;100805.06;5019213;28;20086;-69
2023/02/11 07:37:55;;;;;;;2.67;0.20;;;;;;;1.09;67.67;100806.78;5017865;28;20053;-69
2023/02/11 07:40:22;;;;;;;3.30;0.20;;;;;;;1.08;68.33;100805.91;5019255;28;20038;-69
2023/02/11 07:42:49;;;;;;;0.38;0.20;;;;;;;1.06;67.88;100825.59;5019902;28;20490;-69
2023/02/11 07:45:16;;;;;;;2.08;0.40;;;;;;;1.06;68.28;100833.31;5021139;28;20053;-69
2023/02/11 07:47:44;;;;;;;2.28;0.20;;;;;;;1.04;68.39;100836.69;5015348;28;20052;-70
2023/02/11 07:50:13;;;;;;;3.53;0.20;;;;;;;1.00;68.59;100840.91;5015262;28;20041;-69
2023/02/11 07:52:39;;;;;;;2.38;0.10;;;;;;;1.02;68.30;100846.06;5014811;28;20126;-69
2023/02/11 07:55:08;;;;;;;4.35;0.40;;;;;;;1.01;67.99;100847.75;5017051;28;20509;-69
2023/02/11 07:57:34;;;;;;;3.13;0.30;;;;;;;1.00;68.92;100853.75;5018125;28;20050;-69
2023/02/11 08:00:01;;;;;;;1.70;0.20;;;;;;;1.01;68.78;100867.47;5015471;28;20046;-69
2023/02/11 08:02:28;;;;;;;1.98;0.20;;;;;;;1.01;67.96;100876.06;5021402;28;20502;-69
2023/02/11 08:04:55;;;;;;;2.78;0.20;;;;;;;0.99;68.44;100893.16;5015986;28;20092;-69
2023/02/11 08:07:23;;;;;;;0.57;0.20;;;;;;;0.99;68.39;100898.28;5013739;28;20053;-69
2023/02/11 08:09:50;;;;;;;2.95;0.30;;;;;;;0.99;68.11;100918.00;5014152;28;20049;-70
2023/02/11 08:12:17;;;;;;;4.97;0.28;;;;;;;0.96;68.67;100921.38;5012900;28;20049;-70
2023/02/11 08:14:44;;;;;;;1.98;0.20;;;;;;;0.98;68.06;100934.28;5015054;28;20046;-70
2023/02/11 08:17:11;;;;;;;1.77;0.40;;;;;;;1.00;68.20;100937.78;5015355;28;20056;-70
2023/02/11 08:19:39;;;;;;;2.25;0.20;;;;;;;0.99;68.39;100943.72;5011989;28;20134;-69
2023/02/11 08:22:06;;;;;;;2.35;0.77;;;;;;;0.99;68.40;100943.72;5013992;28;20046;-70
2023/02/11 08:24:34;;;;;;;2.33;0.40;;;;;;;1.00;68.23;100956.66;5015176;28;20055;-70
2023/02/11 08:27:01;;;;;;;3.55;0.30;;;;;;;1.00;67.84;100976.34;5014570;28;20058;-70
2023/02/11 08:29:28;;;;;;;3.55;0.25;;;;;;;1.00;68.30;100981.50;5013738;28;20046;-70
2023/02/11 08:31:55;;;;;;;4.07;0.30;;;;;;;0.99;68.34;100985.75;5015104;28;20637;-70
2023/02/11 08:34:22;;;;;;;0.28;0.10;;;;;;;1.00;68.61;100995.22;5016111;28;20763;-70
2023/02/11 08:36:49;;;;;;;0.85;0.30;;;;;;;1.01;68.00;101001.25;5016393;28;20060;-69
2023/02/11 08:39:18;;;;;;;1.77;0.50;;;;;;;1.00;68.61;101028.66;5017386;28;20414;-70
2023/02/11 08:41:47;;;;;;;1.55;0.17;;;;;;;1.01;68.29;101035.53;5022853;28;20406;-69
2023/02/11 08:44:14;;;;;;;6.60;0.47;;;;;;;1.00;68.15;101049.25;5021251;28;20073;-70
2023/02/11 08:46:41;;;;;;;4.15;0.20;;;;;;;1.01;68.51;101058.69;5022513;28;20421;-69
2023/02/11 08:49:08;;;;;;;1.90;0.20;;;;;;;0.99;68.87;101062.91;5024059;28;20049;-70
2023/02/11 08:51:35;;;;;;;4.50;0.45;;;;;;;1.02;68.35;101077.56;5018501;28;20046;-70
2023/02/11 08:54:02;;;;;;;3.67;0.20;;;;;;;1.01;68.63;101087.00;5019839;28;20054;-70
2023/02/11 08:56:30;;;;;;;2.83;0.22;;;;;;;1.01;68.73;101097.28;5017365;28;20060;-70
2023/02/11 08:58:58;;;;;;;1.88;1.48;;;;;;;1.01;68.33;101102.44;5020029;28;20052;-70
2023/02/11 09:01:27;;;;;;;2.95;0.30;;;;;;;0.98;68.23;101117.78;5020113;28;20045;-69
2023/02/11 09:03:55;;;;;;;0.50;0.20;;;;;;;1.01;68.26;101123.00;5021430;28;20413;-70
2023/02/11 09:06:22;;;;;;;1.23;0.20;;;;;;;1.02;68.58;101139.31;5021803;28;20044;-70
2023/02/11 09:08:51;;;;;;;4.57;0.30;;;;;;;1.02;68.44;101155.59;5018927;28;20081;-69
2023/02/11 09:11:19;;;;;;;1.42;0.20;;;;;;;1.03;68.88;101172.81;5020081;28;20042;-70
2023/02/11 09:13:46;;;;;;;3.53;0.50;;;;;;;1.01;68.72;101179.59;5020924;28;20052;-70
2023/02/11 09:16:19;;;;;;;3.00;0.28;;;;;;;1.03;68.88;101193.38;5017483;28;20048;-70
2023/02/11 09:18:47;;;;;;;2.78;0.40;;;;;;;1.02;68.01;101201.91;5016748;28;20058;-70
2023/02/11 09:21:15;;;;;;;6.88;0.30;;;;;;;1.03;68.61;101213.97;5018529;28;20049;-70
2023/02/11 09:23:43;;;;;;;5.32;0.47;;;;;;;1.01;68.35;101214.75;5020286;28;20044;-70
2023/02/11 09:26:13;;;;;;;1.17;0.35;;;;;;;1.03;68.57;101231.97;5019061;28;20463;-70
2023/02/11 09:28:41;;;;;;;2.55;0.30;;;;;;;1.02;68.37;101245.63;5019226;28;20054;-71
2023/02/11 09:31:09;;;;;;;0.88;0.25;;;;;;;1.07;67.83;101264.66;5017959;28;20052;-70
2023/02/11 09:33:40;;;;;;;2.67;0.32;;;;;;;1.08;68.05;101269.00;5020460;28;20055;-69
2023/02/11 09:36:09;;;;;;;3.90;0.15;;;;;;;1.10;68.59;101279.31;5019745;28;20074;-69
2023/02/11 09:38:35;;;;;;;1.45;0.22;;;;;;;1.09;68.72;101295.59;5014054;28;20041;-69
2023/02/11 09:41:06;;;;;;;2.67;0.30;;;;;;;1.08;68.41;101304.13;5016971;28;20379;-69
2023/02/11 09:43:38;;;;;;;2.72;0.68;;;;;;;1.06;68.13;101314.38;5020528;28;20057;-69
2023/02/11 09:46:05;;;;;;;3.55;0.40;;;;;;;1.06;67.62;101327.25;5015773;28;20061;-69
2023/02/11 09:48:41;;;;;;;3.22;0.55;;;;;;;1.07;67.92;101334.13;5016342;28;20049;-69
2023/02/11 09:51:17;;;;;;;0.70;0.20;;;;;;;1.07;68.17;101347.00;5015619;28;20053;-69
2023/02/11 09:53:44;;;;;;;4.80;0.43;;;;;;;1.07;67.85;101362.44;5017784;28;20049;-69
2023/02/11 09:56:13;;;;;;;5.72;0.60;;;;;;;1.06;67.63;101355.53;5016084;28;20045;-69
2023/02/11 09:58:42;;;;;;;2.30;0.20;;;;;;;1.05;67.46;101371.81;5013290;28;20042;-69
2023/02/11 10:01:20;;;;;;;4.13;0.30;;;;;;;1.04;67.88;101375.19;5018342;28;20054;-68
2023/02/11 10:04:00;;;;;;;2.28;0.30;;;;;;;1.03;67.58;101373.47;5020069;28;20076;-68
2023/02/11 10:06:47;;;;;;;5.68;0.25;;;;;;;1.04;66.84;101382.91;5020023;28;20050;-69
2023/02/11 10:09:42;;;;;;;0.10;0.10;;;;;;;1.05;67.42;101382.13;5016746;28;20048;-69
2023/02/11 10:12:26;;;;;;;4.68;0.30;;;;;;;1.05;67.23;101387.25;5017121;28;20813;-69
2023/02/11 10:15:08;;;;;;;4.47;0.20;;;;;;;1.03;67.62;101400.91;5022763;28;20045;-70
2023/02/11 10:17:53;;;;;;;4.28;0.20;;;;;;;1.02;67.38;101396.56;5021409;28;20137;-69
2023/02/11 10:20:29;;;;;;;2.28;0.40;;;;;;;1.01;66.79;101410.25;5021466;28;20053;-70
2023/02/11 10:22:59;;;;;;;2.90;0.30;;;;;;;0.99;66.71;101412.78;5019253;28;20049;-70
2023/02/11 10:25:29;;;;;;;3.78;0.32;;;;;;;1.00;67.09;101416.25;5015617;28;20088;-69
2023/02/11 10:27:59;;;;;;;2.45;0.60;;;;;;;1.01;66.85;101430.84;5016279;28;20064;-70
2023/02/11 10:30:32;;;;;;;1.70;0.25;;;;;;;1.00;67.03;101432.53;5014965;28;20529;-69
2023/02/11 10:33:04;;;;;;;4.28;0.10;;;;;;;1.02;66.58;101448.88;5021313;28;20064;-71
2023/02/11 10:35:32;;;;;;;3.58;0.50;;;;;;;1.01;67.15;101442.00;5019008;28;20049;-69
2023/02/11 10:38:00;;;;;;;1.63;0.20;;;;;;;1.01;66.85;101447.16;5016926;28;20060;-69
2023/02/11 10:40:30;;;;;;;1.77;0.30;;;;;;;1.02;67.12;101459.16;5020231;28;20051;-69
2023/02/11 10:43:00;;;;;;;3.75;0.20;;;;;;;1.02;66.97;101464.31;5017980;28;20050;-69
2023/02/11 10:45:32;;;;;;;4.20;0.30;;;;;;;1.03;67.48;101486.66;5021309;28;20062;-69
2023/02/11 10:48:00;;;;;;;1.45;0.75;;;;;;;1.04;66.58;101485.81;5017732;28;20446;-69
2023/02/11 10:50:29;;;;;;;3.13;0.22;;;;;;;1.03;66.99;101491.81;5021918;28;20046;-69
2023/02/11 10:53:12;;;;;;;1.80;0.30;;;;;;;1.06;66.58;101494.47;5018577;28;20616;-69
2023/02/11 10:55:49;;;;;;;9.55;0.75;;;;;;;1.04;67.39;101501.25;5017085;28;20084;-69
2023/02/11 10:58:25;;;;;;;4.22;0.47;;;;;;;1.06;66.73;101511.63;5014760;28;20046;-68
2023/02/11 11:00:54;;;;;;;5.45;2.03;;;;;;;1.06;66.56;101517.63;5017804;28;20055;-69
2023/02/11 11:03:24;;;;;;;1.95;0.30;;;;;;;1.06;66.36;101522.78;5016625;28;20037;-69
2023/02/11 11:05:52;;;;;;;3.83;0.20;;;;;;;1.06;66.92;101529.63;5016105;28;20145;-68
2023/02/11 11:08:20;;;;;;;5.60;0.45;;;;;;;1.06;66.64;101540.78;5015959;28;20050;-69
2023/02/11 11:10:49;;;;;;;3.67;0.85;;;;;;;1.07;66.55;101549.38;5018379;28;20545;-69
2023/02/11 11:13:33;;;;;;;3.60;0.40;;;;;;;1.09;66.94;101547.75;5021872;28;20509;-69
2023/02/11 11:16:25;;;;;;;3.30;0.60;;;;;;;1.08;66.69;101564.88;5022043;28;20087;-69
2023/02/11 11:18:53;;;;;;;4.68;0.30;;;;;;;1.08;66.99;101563.97;5017232;28;20045;-69
2023/02/11 11:21:23;;;;;;;4.47;0.30;;;;;;;1.07;66.19;101581.13;5019539;28;20057;-69
2023/02/11 11:23:57;;;;;;;5.03;0.30;;;;;;;1.09;66.60;101583.75;5020779;28;20053;-69
2023/02/11 11:26:26;;;;;;;3.55;0.28;;;;;;;1.10;66.65;101601.81;5020854;28;20041;-69
2023/02/11 11:29:01;;;;;;;1.80;0.30;;;;;;;1.10;66.26;101612.09;5020116;28;20054;-69
2023/02/11 11:31:32;;;;;;;2.05;0.30;;;;;;;1.10;65.99;101612.09;5015608;28;20049;-69
2023/02/11 11:34:01;;;;;;;4.13;0.28;;;;;;;1.10;66.00;101617.25;5018553;28;20053;-69
2023/02/11 11:36:39;;;;;;;3.72;0.10;;;;;;;1.10;65.98;101629.25;5020528;28;20056;-69
2023/02/11 11:39:21;;;;;;;2.95;0.40;;;;;;;1.09;65.72;101625.81;5018978;28;20536;-69
2023/02/11 11:41:51;;;;;;;5.18;0.30;;;;;;;1.10;66.51;101637.84;5016607;28;20049;-69
2023/02/11 11:44:25;;;;;;;4.78;0.30;;;;;;;1.06;66.12;101646.28;5019205;28;20045;-69
2023/02/11 11:47:07;;;;;;;2.28;0.35;;;;;;;1.09;65.72;101655.81;5019212;28;20037;-69
2023/02/11 11:49:39;;;;;;;4.47;0.32;;;;;;;1.09;65.85;101668.66;5022231;28;20049;-69